Time;durP1;ratioP1;P1;durP2;ratioP2;P2;SDS_P1;SDS_P2;PMS_P1;PMS_P2;Temp;Humidity;BMP_temperature;BMP_pressure;BME280_temperature;BME280_humidity;BME280_pressure;Samples;Min_cycle;Max_cycle;Signal;HPM_P1;HPM_P2
2021/06/12 00:01:13;;;;;;;;;;;18.50;78.20;;;;;;5071588;28;19928;-67
2021/06/12 00:03:38;;;;;;;;;;;18.30;78.20;;;;;;5071676;28;20289;-67
2021/06/12 00:06:05;;;;;;;;;;;18.30;78.30;;;;;;5071238;28;19917;-67
2021/06/12 00:08:30;;;;;;;;;;;18.20;78.40;;;;;;5071618;28;19991;-66
2021/06/12 00:10:56;;;;;;;;;;;18.20;78.60;;;;;;5071181;28;20454;-69
2021/06/12 00:13:22;;;;;;;;;;;18.20;78.50;;;;;;5071398;28;19924;-67
2021/06/12 00:15:47;;;;;;;;;;;18.20;78.60;;;;;;5071714;28;19921;-67
2021/06/12 00:18:13;;;;;;;;;;;18.10;78.70;;;;;;5070899;28;19920;-67
2021/06/12 00:20:39;;;;;;;;;;;18.10;78.90;;;;;;5070950;28;19920;-68
2021/06/12 00:23:05;;;;;;;;;;;18.00;79.00;;;;;;5053020;28;20456;-65
2021/06/12 00:25:31;;;;;;;;;;;18.00;79.20;;;;;;5069659;28;19927;-66
2021/06/12 00:27:59;;;;;;;;;;;18.00;79.40;;;;;;5071315;28;20007;-66
2021/06/12 00:30:26;;;;;;;;;;;18.00;79.30;;;;;;5069675;28;20431;-68
2021/06/12 00:32:53;;;;;;;;;;;18.10;79.50;;;;;;5071062;28;20377;-65
2021/06/12 00:35:18;;;;;;;;;;;18.10;79.60;;;;;;5071181;28;20388;-67
2021/06/12 00:37:44;;;;;;;;;;;18.10;79.60;;;;;;5070780;28;19923;-67
2021/06/12 00:40:11;;;;;;;;;;;18.10;79.60;;;;;;5069916;28;19920;-67
2021/06/12 00:42:37;;;;;;;;;;;18.20;79.70;;;;;;5071016;28;19952;-67
2021/06/12 00:45:07;;;;;;;;;;;18.20;79.80;;;;;;5071216;28;19917;-68
2021/06/12 00:47:32;;;;;;;;;;;18.20;79.60;;;;;;5069668;28;20448;-67
2021/06/12 00:49:58;;;;;;;;;;;18.20;79.60;;;;;;5069522;28;19917;-67
2021/06/12 00:52:24;;;;;;;;;;;18.20;79.70;;;;;;5071200;28;19924;-65
2021/06/12 00:54:49;;;;;;;;;;;18.20;79.90;;;;;;5052781;28;20028;-66
2021/06/12 00:57:15;;;;;;;;;;;18.30;79.90;;;;;;5069187;28;19920;-67
2021/06/12 00:59:41;;;;;;;;;;;18.30;79.70;;;;;;5071649;28;19917;-67
2021/06/12 01:02:06;;;;;;;;;;;18.30;79.90;;;;;;5074122;28;20495;-66
2021/06/12 01:04:32;;;;;;;;;;;18.30;79.80;;;;;;5074634;28;21459;-67
2021/06/12 01:06:58;;;;;;;;;;;18.30;80.00;;;;;;5073228;28;19916;-66
2021/06/12 01:09:23;;;;;;;;;;;18.30;80.10;;;;;;5074272;28;20040;-66
2021/06/12 01:12:07;;;;;;;;;;;18.30;80.10;;;;;;5073405;28;20343;-66
2021/06/12 01:14:35;;;;;;;;;;;18.30;80.10;;;;;;5073710;28;19924;-67
2021/06/12 01:17:12;;;;;;;;;;;18.30;80.10;;;;;;5074283;28;19917;-66
2021/06/12 01:19:38;;;;;;;;;;;18.30;80.00;;;;;;5074326;28;19931;-67
2021/06/12 01:22:15;;;;;;;;;;;18.40;80.70;;;;;;5074496;28;19924;-67
2021/06/12 01:24:55;;;;;;;;;;;18.30;80.30;;;;;;5072504;28;20013;-67
2021/06/12 01:27:21;;;;;;;;;;;18.30;80.50;;;;;;5074405;28;19923;-67
2021/06/12 01:30:07;;;;;;;;;;;18.30;80.30;;;;;;5073775;28;19916;-65
2021/06/12 01:32:34;;;;;;;;;;;18.30;80.40;;;;;;5074307;28;19923;-70
2021/06/12 01:35:03;;;;;;;;;;;18.30;80.60;;;;;;5073602;28;20377;-67
2021/06/12 01:37:30;;;;;;;;;;;18.30;80.60;;;;;;5074206;28;19940;-66
2021/06/12 01:39:56;;;;;;;;;;;18.30;80.70;;;;;;5073782;28;20430;-66
2021/06/12 01:42:22;;;;;;;;;;;18.30;80.70;;;;;;5074351;28;20008;-66
2021/06/12 01:44:48;;;;;;;;;;;18.30;80.70;;;;;;5072606;28;19952;-66
2021/06/12 01:47:14;;;;;;;;;;;18.30;80.60;;;;;;5073513;28;19917;-66
2021/06/12 01:49:41;;;;;;;;;;;18.30;80.70;;;;;;5073989;28;19922;-66
2021/06/12 01:52:07;;;;;;;;;;;18.30;80.80;;;;;;5072143;28;19970;-67
2021/06/12 01:54:33;;;;;;;;;;;18.30;80.80;;;;;;5073625;28;19917;-66
2021/06/12 01:56:59;;;;;;;;;;;18.30;80.70;;;;;;5073568;28;20400;-67
2021/06/12 01:59:26;;;;;;;;;;;18.30;80.80;;;;;;5073437;28;19924;-65
2021/06/12 02:01:52;;;;;;;;;;;18.30;80.80;;;;;;5072504;28;19924;-67
2021/06/12 02:04:19;;;;;;;;;;;18.30;80.90;;;;;;5073466;28;20395;-67
2021/06/12 02:06:46;;;;;;;;;;;18.30;81.30;;;;;;5073228;28;19917;-67
2021/06/12 02:09:14;;;;;;;;;;;18.30;80.80;;;;;;5072478;28;20369;-67
2021/06/12 02:11:40;;;;;;;;;;;18.30;80.70;;;;;;5072398;28;19916;-67
2021/06/12 02:14:07;;;;;;;;;;;18.30;81.00;;;;;;5073257;28;19965;-65
2021/06/12 02:16:35;;;;;;;;;;;18.30;81.00;;;;;;5073500;28;19923;-66
2021/06/12 02:19:01;;;;;;;;;;;18.30;80.90;;;;;;5071656;28;19917;-67
2021/06/12 02:21:27;;;;;;;;;;;18.30;80.90;;;;;;5073240;28;19928;-67
2021/06/12 02:23:53;;;;;;;;;;;18.30;80.90;;;;;;5072486;28;20401;-67
2021/06/12 02:26:20;;;;;;;;;;;18.30;80.90;;;;;;5073338;28;19942;-66
2021/06/12 02:28:47;;;;;;;;;;;18.40;81.00;;;;;;5073133;28;19917;-67
2021/06/12 02:31:23;;;;;;;;;;;18.40;81.10;;;;;;5072753;28;20553;-66
2021/06/12 02:33:49;;;;;;;;;;;18.40;81.20;;;;;;5072996;28;20007;-66
2021/06/12 02:36:15;;;;;;;;;;;18.30;81.20;;;;;;5072447;28;20010;-66
2021/06/12 02:38:40;;;;;;;;;;;18.30;81.10;;;;;;5038582;28;20357;-66
2021/06/12 02:41:06;;;;;;;;;;;18.30;81.20;;;;;;5072981;28;20420;-66
2021/06/12 02:43:32;;;;;;;;;;;18.20;81.20;;;;;;5072260;28;19924;-66
2021/06/12 02:45:59;;;;;;;;;;;18.30;81.40;;;;;;5073081;28;19996;-66
2021/06/12 02:48:27;;;;;;;;;;;18.30;81.40;;;;;;5071078;28;19962;-67
2021/06/12 02:50:53;;;;;;;;;;;18.20;81.30;;;;;;5071316;28;19916;-67
2021/06/12 02:53:21;;;;;;;;;;;18.30;81.60;;;;;;5071293;28;19922;-67
2021/06/12 02:55:49;;;;;;;;;;;18.30;81.50;;;;;;5072094;28;20262;-67
2021/06/12 02:58:17;;;;;;;;;;;18.20;81.70;;;;;;5071156;28;19963;-67
2021/06/12 03:00:44;;;;;;;;;;;18.20;81.70;;;;;;5072196;28;20292;-66
2021/06/12 03:03:12;;;;;;;;;;;18.20;81.70;;;;;;5072176;28;20396;-66
2021/06/12 03:05:39;;;;;;;;;;;18.20;81.80;;;;;;5071085;28;20324;-67
2021/06/12 03:08:07;;;;;;;;;;;18.10;81.90;;;;;;5071108;28;19927;-67
2021/06/12 03:10:33;;;;;;;;;;;18.20;82.00;;;;;;5072572;28;19916;-66
2021/06/12 03:13:02;;;;;;;;;;;18.20;82.30;;;;;;5071882;28;19916;-66
2021/06/12 03:15:28;;;;;;;;;;;18.10;82.20;;;;;;5072420;28;19920;-65
2021/06/12 03:17:55;;;;;;;;;;;18.20;82.30;;;;;;5072338;28;19923;-65
2021/06/12 03:20:21;;;;;;;;;;;18.10;82.30;;;;;;5071590;28;19932;-66
2021/06/12 03:22:48;;;;;;;;;;;18.40;82.50;;;;;;5070535;28;19920;-67
2021/06/12 03:25:14;;;;;;;;;;;18.20;82.50;;;;;;5071171;28;19919;-66
2021/06/12 03:27:41;;;;;;;;;;;18.10;82.50;;;;;;5071996;28;19916;-66
2021/06/12 03:30:07;;;;;;;;;;;18.10;82.60;;;;;;5072292;28;19921;-66
2021/06/12 03:32:33;;;;;;;;;;;18.10;82.40;;;;;;5070464;28;19916;-66
2021/06/12 03:35:00;;;;;;;;;;;18.10;82.30;;;;;;5071650;28;19917;-65
2021/06/12 03:37:25;;;;;;;;;;;18.00;82.50;;;;;;5071963;28;20019;-67
2021/06/12 03:39:51;;;;;;;;;;;18.00;82.70;;;;;;5071388;28;19993;-67
2021/06/12 03:42:17;;;;;;;;;;;18.00;82.90;;;;;;5071941;28;19920;-66
2021/06/12 03:44:44;;;;;;;;;;;18.00;83.00;;;;;;5071110;28;20073;-67
2021/06/12 03:47:11;;;;;;;;;;;18.00;83.10;;;;;;5071808;28;20292;-67
2021/06/12 03:49:36;;;;;;;;;;;18.00;83.00;;;;;;5071859;28;19923;-65
2021/06/12 03:52:02;;;;;;;;;;;18.00;83.10;;;;;;5071230;28;19916;-66
2021/06/12 03:54:29;;;;;;;;;;;18.00;83.30;;;;;;5070301;28;20254;-67
2021/06/12 03:56:55;;;;;;;;;;;18.00;83.20;;;;;;5069736;28;19924;-67
2021/06/12 03:59:22;;;;;;;;;;;18.00;83.10;;;;;;5071815;28;20324;-67
2021/06/12 04:01:48;;;;;;;;;;;18.10;83.10;;;;;;5072071;28;20359;-71
2021/06/12 04:04:13;;;;;;;;;;;18.10;83.30;;;;;;5070966;28;19951;-71
2021/06/12 04:06:39;;;;;;;;;;;18.10;83.00;;;;;;5071709;28;19912;-70
2021/06/12 04:09:04;;;;;;;;;;;18.10;83.00;;;;;;5071658;28;19925;-71
2021/06/12 04:11:30;;;;;;;;;;;18.10;82.90;;;;;;5071365;28;19912;-72
2021/06/12 04:13:55;;;;;;;;;;;18.10;83.00;;;;;;5071536;28;19917;-71
2021/06/12 04:16:21;;;;;;;;;;;18.10;83.00;;;;;;5071274;28;19992;-70
2021/06/12 04:18:46;;;;;;;;;;;18.20;82.90;;;;;;5071492;28;19923;-70
2021/06/12 04:21:12;;;;;;;;;;;18.20;82.90;;;;;;5071658;28;19927;-71
2021/06/12 04:23:37;;;;;;;;;;;18.30;83.00;;;;;;5071114;28;19912;-71
2021/06/12 04:26:03;;;;;;;;;;;18.20;82.80;;;;;;5071949;28;19916;-72
2021/06/12 04:28:29;;;;;;;;;;;18.30;82.40;;;;;;5070251;28;19916;-71
2021/06/12 04:30:54;;;;;;;;;;;18.20;82.40;;;;;;5071181;28;19917;-72
2021/06/12 04:33:20;;;;;;;;;;;18.30;82.40;;;;;;5060885;28;19920;-71
2021/06/12 04:35:45;;;;;;;;;;;18.20;82.50;;;;;;5073610;28;20277;-70
2021/06/12 04:38:11;;;;;;;;;;;18.20;82.80;;;;;;5075345;28;19924;-70
2021/06/12 04:40:37;;;;;;;;;;;18.30;82.70;;;;;;5075768;28;19935;-71
2021/06/12 04:43:03;;;;;;;;;;;18.30;82.60;;;;;;5074687;28;19962;-70
2021/06/12 04:45:29;;;;;;;;;;;18.30;82.50;;;;;;5075210;28;20338;-70
2021/06/12 04:47:55;;;;;;;;;;;18.40;82.60;;;;;;5074348;28;19920;-71
2021/06/12 04:50:20;;;;;;;;;;;18.50;82.60;;;;;;5075250;28;19967;-70
2021/06/12 04:52:46;;;;;;;;;;;18.50;82.20;;;;;;5075082;28;19966;-71
2021/06/12 04:55:11;;;;;;;;;;;18.60;81.80;;;;;;5073313;28;20405;-71
2021/06/12 04:57:38;;;;;;;;;;;18.60;81.80;;;;;;5074880;28;19952;-71
2021/06/12 05:00:05;;;;;;;;;;;18.60;81.90;;;;;;5073412;28;20430;-71
2021/06/12 05:02:30;;;;;;;;;;;18.60;81.80;;;;;;5074414;28;19917;-72
2021/06/12 05:04:56;;;;;;;;;;;18.60;81.70;;;;;;5063972;28;19925;-71
2021/06/12 05:07:21;;;;;;;;;;;18.60;81.60;;;;;;5054227;28;19956;-71
2021/06/12 05:09:47;;;;;;;;;;;18.60;81.50;;;;;;5054741;28;19921;-70
2021/06/12 05:12:12;;;;;;;;;;;18.70;81.50;;;;;;5054785;28;19917;-71
2021/06/12 05:14:38;;;;;;;;;;;18.70;81.40;;;;;;5053915;28;19924;-71
2021/06/12 05:17:07;;;;;;;;;;;18.70;81.20;;;;;;5052925;28;19974;-71
2021/06/12 05:19:33;;;;;;;;;;;18.70;81.10;;;;;;5071959;28;19922;-71
2021/06/12 05:21:59;;;;;;;;;;;18.70;81.20;;;;;;5073439;28;19925;-71
2021/06/12 05:24:24;;;;;;;;;;;18.70;80.90;;;;;;5074245;28;20396;-71
2021/06/12 05:26:50;;;;;;;;;;;18.80;81.10;;;;;;5065798;28;19917;-71
2021/06/12 05:29:16;;;;;;;;;;;18.80;81.10;;;;;;5054465;28;20003;-71
2021/06/12 05:31:41;;;;;;;;;;;18.90;81.00;;;;;;5054297;28;19923;-71
2021/06/12 05:34:07;;;;;;;;;;;18.90;80.70;;;;;;5053403;28;19917;-70
2021/06/12 05:36:33;;;;;;;;;;;19.00;80.70;;;;;;5054224;28;19951;-71
2021/06/12 05:38:58;;;;;;;;;;;19.00;80.20;;;;;;5054184;28;20334;-71
2021/06/12 05:41:24;;;;;;;;;;;19.00;80.10;;;;;;5053711;28;19949;-70
2021/06/12 05:43:50;;;;;;;;;;;18.90;80.00;;;;;;5053635;28;20528;-71
2021/06/12 05:46:16;;;;;;;;;;;18.90;80.20;;;;;;5052697;28;20377;-69
2021/06/12 05:48:42;;;;;;;;;;;18.90;80.30;;;;;;5052229;28;19924;-71
2021/06/12 05:51:07;;;;;;;;;;;18.90;80.40;;;;;;5053935;28;19921;-71
2021/06/12 05:53:33;;;;;;;;;;;19.00;80.10;;;;;;5051992;28;19921;-69
2021/06/12 05:55:58;;;;;;;;;;;19.00;80.20;;;;;;5053714;28;20111;-71
2021/06/12 05:58:24;;;;;;;;;;;19.00;80.50;;;;;;5053475;28;20290;-70
2021/06/12 06:00:49;;;;;;;;;;;19.10;80.60;;;;;;5053043;28;19927;-71
2021/06/12 06:03:15;;;;;;;;;;;19.00;80.10;;;;;;5053426;28;19924;-71
2021/06/12 06:05:40;;;;;;;;;;;19.00;79.90;;;;;;5053425;28;19917;-71
2021/06/12 06:08:06;;;;;;;;;;;19.00;79.80;;;;;;5053556;28;19917;-72
2021/06/12 06:10:31;;;;;;;;;;;18.90;80.00;;;;;;5053646;28;19917;-70
2021/06/12 06:13:01;;;;;;;;;;;18.90;80.50;;;;;;5051529;28;19924;-70
2021/06/12 06:15:27;;;;;;;;;;;18.90;80.50;;;;;;5053391;28;19917;-70
2021/06/12 06:17:52;;;;;;;;;;;18.90;80.40;;;;;;5053537;28;20416;-71
2021/06/12 06:20:18;;;;;;;;;;;18.90;80.30;;;;;;5058288;28;19928;-70
2021/06/12 06:22:43;;;;;;;;;;;18.90;80.20;;;;;;5061979;28;19917;-71
2021/06/12 06:25:10;;;;;;;;;;;18.90;80.40;;;;;;5056700;28;19996;-70
2021/06/12 06:27:36;;;;;;;;;;;18.90;80.70;;;;;;5061549;28;19923;-71
2021/06/12 06:30:02;;;;;;;;;;;18.90;80.80;;;;;;5060801;28;19917;-71
2021/06/12 06:32:28;;;;;;;;;;;19.00;81.20;;;;;;5062249;28;19920;-71
2021/06/12 06:34:53;;;;;;;;;;;19.00;80.50;;;;;;5063683;28;19928;-71
2021/06/12 06:37:19;;;;;;;;;;;18.90;80.50;;;;;;5064887;28;19917;-70
2021/06/12 06:39:44;;;;;;;;;;;18.90;80.30;;;;;;5056896;28;19921;-72
2021/06/12 06:42:10;;;;;;;;;;;18.80;80.50;;;;;;5069315;28;19931;-71
2021/06/12 06:44:36;;;;;;;;;;;18.80;80.60;;;;;;5058390;28;19916;-70
2021/06/12 06:47:03;;;;;;;;;;;18.70;80.60;;;;;;5061560;28;19923;-70
2021/06/12 06:49:29;;;;;;;;;;;18.60;80.50;;;;;;5066014;28;20015;-70
2021/06/12 06:51:54;;;;;;;;;;;18.40;80.80;;;;;;5055803;28;19917;-70
2021/06/12 06:54:20;;;;;;;;;;;18.20;81.50;;;;;;5062242;28;19960;-69
2021/06/12 06:56:45;;;;;;;;;;;18.20;82.30;;;;;;5068624;28;19923;-69
2021/06/12 06:59:11;;;;;;;;;;;18.10;82.90;;;;;;5057498;28;19920;-72
2021/06/12 07:01:37;;;;;;;;;;;18.20;83.50;;;;;;5065820;28;19929;-69
2021/06/12 07:04:04;;;;;;;;;;;18.20;83.60;;;;;;5060878;28;21480;-71
2021/06/12 07:06:31;;;;;;;;;;;18.20;83.80;;;;;;5058808;28;20288;-68
2021/06/12 07:08:56;;;;;;;;;;;18.30;83.90;;;;;;5059028;28;19917;-69
2021/06/12 07:11:22;;;;;;;;;;;18.30;83.90;;;;;;5050489;28;20337;-71
2021/06/12 07:13:47;;;;;;;;;;;18.30;84.20;;;;;;5052572;28;19916;-71
2021/06/12 07:16:13;;;;;;;;;;;18.30;84.40;;;;;;5055389;28;19916;-70
2021/06/12 07:18:39;;;;;;;;;;;18.30;84.70;;;;;;5051242;28;19917;-72
2021/06/12 07:21:04;;;;;;;;;;;18.40;84.40;;;;;;5052140;28;19928;-69
2021/06/12 07:23:30;;;;;;;;;;;18.40;84.60;;;;;;5051712;28;19924;-67
2021/06/12 07:25:55;;;;;;;;;;;18.40;84.70;;;;;;5053267;28;19924;-71
2021/06/12 07:28:21;;;;;;;;;;;18.30;84.70;;;;;;5052457;28;19940;-70
2021/06/12 07:30:47;;;;;;;;;;;18.30;84.90;;;;;;5068744;28;19917;-70
2021/06/12 07:33:13;;;;;;;;;;;18.40;85.10;;;;;;5067678;28;19956;-70
2021/06/12 07:35:39;;;;;;;;;;;18.50;85.90;;;;;;5058370;28;20321;-70
2021/06/12 07:38:05;;;;;;;;;;;18.60;86.10;;;;;;5071102;28;19924;-70
2021/06/12 07:40:31;;;;;;;;;;;18.80;85.70;;;;;;5058765;28;19944;-70
2021/06/12 07:42:56;;;;;;;;;;;19.00;86.00;;;;;;5059779;28;19996;-70
2021/06/12 07:45:22;;;;;;;;;;;19.00;85.00;;;;;;5058377;28;19978;-71
2021/06/12 07:47:48;;;;;;;;;;;19.00;83.90;;;;;;5071719;28;20003;-70
2021/06/12 07:50:14;;;;;;;;;;;18.80;83.70;;;;;;5055784;28;20270;-72
2021/06/12 07:52:39;;;;;;;;;;;18.70;83.70;;;;;;5067312;28;19924;-72
2021/06/12 07:55:05;;;;;;;;;;;18.60;83.90;;;;;;5059813;28;19916;-70
2021/06/12 07:57:30;;;;;;;;;;;18.40;83.90;;;;;;5063295;28;20018;-70
2021/06/12 07:59:56;;;;;;;;;;;18.40;84.50;;;;;;5057294;28;19916;-71
2021/06/12 08:02:22;;;;;;;;;;;18.40;84.60;;;;;;5055739;28;19999;-71
2021/06/12 08:04:48;;;;;;;;;;;18.40;84.50;;;;;;5069657;28;19948;-71
2021/06/12 08:07:15;;;;;;;;;;;18.30;83.80;;;;;;5057799;28;19917;-70
2021/06/12 08:09:41;;;;;;;;;;;18.20;83.80;;;;;;5062095;28;20006;-72
2021/06/12 08:12:06;;;;;;;;;;;18.10;84.40;;;;;;5054111;28;19944;-72
2021/06/12 08:14:32;;;;;;;;;;;18.00;84.70;;;;;;5066057;28;19935;-72
2021/06/12 08:16:57;;;;;;;;;;;18.00;84.70;;;;;;5055259;28;19917;-72
2021/06/12 08:19:23;;;;;;;;;;;18.00;84.50;;;;;;5066963;28;19917;-69
2021/06/12 08:21:49;;;;;;;;;;;18.00;84.90;;;;;;5059134;28;19970;-69
2021/06/12 08:24:14;;;;;;;;;;;18.10;85.60;;;;;;5060622;28;20380;-69
2021/06/12 08:26:41;;;;;;;;;;;18.30;86.00;;;;;;5057954;28;19995;-69
2021/06/12 08:29:07;;;;;;;;;;;18.70;86.90;;;;;;5060268;28;19996;-70
2021/06/12 08:31:33;;;;;;;;;;;19.60;88.10;;;;;;5065175;28;19959;-69
2021/06/12 08:33:59;;;;;;;;;;;20.70;88.30;;;;;;5061587;28;20407;-70
2021/06/12 08:36:24;;;;;;;;;;;21.80;86.80;;;;;;5068523;28;19925;-68
2021/06/12 08:38:50;;;;;;;;;;;22.70;83.50;;;;;;5059050;28;20387;-69
2021/06/12 08:41:16;;;;;;;;;;;22.90;80.40;;;;;;5069205;28;19921;-70
2021/06/12 08:43:41;;;;;;;;;;;22.80;77.00;;;;;;5055896;28;19916;-69
2021/06/12 08:46:07;;;;;;;;;;;22.50;75.70;;;;;;5069192;28;19927;-68
2021/06/12 08:48:33;;;;;;;;;;;22.10;75.00;;;;;;5054325;28;20376;-70
2021/06/12 08:50:59;;;;;;;;;;;21.60;74.80;;;;;;5059932;28;20399;-70
2021/06/12 08:53:24;;;;;;;;;;;21.30;75.60;;;;;;5057642;28;19917;-69
2021/06/12 08:55:50;;;;;;;;;;;21.00;75.30;;;;;;5053276;28;19924;-68
2021/06/12 08:58:16;;;;;;;;;;;20.70;75.10;;;;;;5065870;28;19990;-68
2021/06/12 09:00:42;;;;;;;;;;;20.40;75.20;;;;;;5057030;28;19921;-68
2021/06/12 09:03:10;;;;;;;;;;;20.10;75.20;;;;;;5060539;28;19998;-69
2021/06/12 09:05:40;;;;;;;;;;;19.80;74.80;;;;;;5065035;28;20380;-69
2021/06/12 09:08:07;;;;;;;;;;;19.60;75.90;;;;;;5053586;28;19948;-69
2021/06/12 09:10:33;;;;;;;;;;;19.50;76.10;;;;;;5065396;28;19912;-69
2021/06/12 09:13:00;;;;;;;;;;;19.60;76.20;;;;;;5059029;28;19982;-69
2021/06/12 09:15:26;;;;;;;;;;;20.10;78.80;;;;;;5057906;28;20009;-69
2021/06/12 09:17:52;;;;;;;;;;;20.70;77.00;;;;;;5066980;28;19997;-70
2021/06/12 09:20:19;;;;;;;;;;;21.20;75.70;;;;;;5066804;28;19932;-70
2021/06/12 09:22:45;;;;;;;;;;;21.60;74.70;;;;;;5061411;28;19923;-69
2021/06/12 09:25:10;;;;;;;;;;;22.40;75.20;;;;;;5063350;28;19920;-70
2021/06/12 09:27:36;;;;;;;;;;;23.80;74.60;;;;;;5066839;28;20488;-70
2021/06/12 09:30:06;;;;;;;;;;;24.80;71.20;;;;;;5073092;28;19917;-69
2021/06/12 09:32:32;;;;;;;;;;;25.60;67.50;;;;;;5059074;28;20377;-70
2021/06/12 09:35:06;;;;;;;;;;;25.90;65.00;;;;;;5064986;28;19917;-70
2021/06/12 09:37:31;;;;;;;;;;;26.20;63.40;;;;;;5067024;28;20430;-69
2021/06/12 09:39:58;;;;;;;;;;;26.90;63.50;;;;;;5057299;28;19917;-69
2021/06/12 09:42:44;;;;;;;;;;;27.20;59.20;;;;;;5051547;28;20017;-69
2021/06/12 09:45:11;;;;;;;;;;;27.40;56.80;;;;;;5053007;28;19954;-70
2021/06/12 09:47:36;;;;;;;;;;;27.40;55.00;;;;;;5059390;28;19982;-69
2021/06/12 09:50:03;;;;;;;;;;;27.00;54.40;;;;;;5068683;28;20436;-71
2021/06/12 09:52:38;;;;;;;;;;;26.80;52.90;;;;;;5058557;28;19939;-70
2021/06/12 09:55:05;;;;;;;;;;;26.30;51.90;;;;;;5063309;28;19924;-69
2021/06/12 09:57:30;;;;;;;;;;;25.60;52.00;;;;;;5066825;28;19952;-70
2021/06/12 09:59:56;;;;;;;;;;;25.10;52.60;;;;;;5056970;28;20296;-70
2021/06/12 10:02:39;;;;;;;;;;;24.80;53.10;;;;;;5069509;28;20261;-71
2021/06/12 10:05:05;;;;;;;;;;;24.90;54.40;;;;;;5045221;28;19916;-72
2021/06/12 10:07:31;;;;;;;;;;;25.70;54.20;;;;;;5072902;28;20576;-72
2021/06/12 10:09:59;;;;;;;;;;;26.30;54.20;;;;;;5056636;28;19945;-72
2021/06/12 10:12:25;;;;;;;;;;;26.30;52.10;;;;;;5068646;28;20304;-73
2021/06/12 10:14:51;;;;;;;;;;;25.90;51.10;;;;;;5060880;28;20062;-73
2021/06/12 10:17:17;;;;;;;;;;;25.30;50.00;;;;;;5061796;28;20318;-73
2021/06/12 10:19:43;;;;;;;;;;;24.50;50.70;;;;;;5067941;28;19916;-71
2021/06/12 10:22:09;;;;;;;;;;;24.00;51.10;;;;;;5056457;28;19975;-73
2021/06/12 10:24:34;;;;;;;;;;;23.60;51.70;;;;;;5067280;28;19924;-73
2021/06/12 10:27:01;;;;;;;;;;;23.10;51.60;;;;;;5060656;28;20319;-72
2021/06/12 10:29:27;;;;;;;;;;;22.50;52.40;;;;;;5060010;28;19921;-73
2021/06/12 10:31:55;;;;;;;;;;;23.10;55.50;;;;;;5069052;28;19966;-72
2021/06/12 10:34:26;;;;;;;;;;;24.20;55.60;;;;;;5055936;28;19921;-72
2021/06/12 10:36:58;;;;;;;;;;;25.20;54.10;;;;;;5064717;28;19927;-73
2021/06/12 10:39:28;;;;;;;;;;;27.70;54.60;;;;;;5063465;28;19916;-73
2021/06/12 10:42:13;;;;;;;;;;;29.70;50.80;;;;;;5056223;28;19978;-73
2021/06/12 10:44:39;;;;;;;;;;;30.00;45.70;;;;;;5065867;28;20007;-72
2021/06/12 10:47:04;;;;;;;;;;;29.10;43.10;;;;;;5062483;28;19995;-72
2021/06/12 10:49:34;;;;;;;;;;;30.40;45.70;;;;;;5059017;28;19925;-73
2021/06/12 10:52:06;;;;;;;;;;;32.70;45.30;;;;;;5067582;28;19917;-71
2021/06/12 10:54:35;;;;;;;;;;;34.30;41.20;;;;;;5056951;28;19917;-73
2021/06/12 10:57:00;;;;;;;;;;;36.10;40.70;;;;;;5063024;28;19917;-74
2021/06/12 10:59:32;;;;;;;;;;;36.70;36.90;;;;;;5065487;28;19927;-73
2021/06/12 11:02:24;;;;;;;;;;;35.40;34.90;;;;;;5055123;28;19960;-73
2021/06/12 11:04:55;;;;;;;;;;;34.00;33.20;;;;;;5063866;28;19917;-74
2021/06/12 11:07:27;;;;;;;;;;;32.50;33.70;;;;;;5064245;28;19965;-72
2021/06/12 11:09:54;;;;;;;;;;;32.60;35.80;;;;;;5055716;28;20175;-73
2021/06/12 11:12:19;;;;;;;;;;;32.90;34.50;;;;;;5053462;28;20384;-73
2021/06/12 11:14:55;;;;;;;;;;;31.90;33.40;;;;;;5058428;28;19955;-73
2021/06/12 11:17:21;;;;;;;;;;;30.90;34.20;;;;;;5063813;28;19923;-72
2021/06/12 11:19:56;;;;;;;;;;;30.30;34.70;;;;;;5055271;28;20030;-73
2021/06/12 11:22:22;;;;;;;;;;;30.30;35.80;;;;;;5057995;28;19920;-74
2021/06/12 11:24:48;;;;;;;;;;;30.00;34.10;;;;;;5064139;28;19920;-73
2021/06/12 11:27:29;;;;;;;;;;;29.20;34.40;;;;;;5062475;28;19920;-73
2021/06/12 11:30:19;;;;;;;;;;;27.90;34.60;;;;;;5055163;28;20328;-74
2021/06/12 11:32:48;;;;;;;;;;;26.70;35.90;;;;;;5064285;28;19917;-72
2021/06/12 11:35:41;;;;;;;;;;;27.10;40.00;;;;;;5061546;28;19920;-74
2021/06/12 11:38:07;;;;;;;;;;;27.40;38.90;;;;;;5040912;28;19923;-72
2021/06/12 11:40:33;;;;;;;;;;;27.10;38.30;;;;;;5064855;28;19921;-72
2021/06/12 11:42:59;;;;;;;;;;;26.70;38.10;;;;;;5058616;28;19969;-73
2021/06/12 11:45:26;;;;;;;;;;;26.40;38.90;;;;;;5058071;28;20343;-67
2021/06/12 11:47:52;;;;;;;;;;;26.30;39.40;;;;;;5067688;28;19923;-68
2021/06/12 11:50:27;;;;;;;;;;;26.10;39.50;;;;;;5055556;28;20281;-67
2021/06/12 11:52:53;;;;;;;;;;;25.80;39.90;;;;;;5060885;28;19917;-67
2021/06/12 11:55:20;;;;;;;;;;;25.60;40.30;;;;;;5057318;28;20365;-67
2021/06/12 11:57:47;;;;;;;;;;;25.20;40.20;;;;;;5051285;28;19927;-66
2021/06/12 12:00:29;;;;;;;;;;;25.30;42.20;;;;;;5051243;28;19913;-67
2021/06/12 12:02:57;;;;;;;;;;;25.70;42.20;;;;;;5050865;28;20019;-67
2021/06/12 12:05:23;;;;;;;;;;;26.10;41.10;;;;;;5051189;28;19959;-68
2021/06/12 12:07:49;;;;;;;;;;;25.90;40.70;;;;;;5051002;28;19944;-67
2021/06/12 12:10:14;;;;;;;;;;;25.40;40.90;;;;;;5051227;28;19916;-66
2021/06/12 12:12:40;;;;;;;;;;;24.90;41.30;;;;;;5051251;28;19966;-66
2021/06/12 12:15:06;;;;;;;;;;;24.40;42.50;;;;;;5050784;28;19924;-66
2021/06/12 12:17:32;;;;;;;;;;;24.10;44.00;;;;;;5051331;28;19923;-65
2021/06/12 12:20:04;;;;;;;;;;;24.10;43.80;;;;;;5049750;28;19925;-69
2021/06/12 12:22:45;;;;;;;;;;;23.80;43.90;;;;;;5051383;28;19956;-67
2021/06/12 12:25:12;;;;;;;;;;;23.50;44.40;;;;;;5050731;28;20491;-66
2021/06/12 12:27:38;;;;;;;;;;;23.40;44.90;;;;;;5051120;28;19921;-65
2021/06/12 12:30:04;;;;;;;;;;;23.20;45.10;;;;;;5051281;28;20066;-67
2021/06/12 12:32:31;;;;;;;;;;;23.10;45.90;;;;;;5053826;28;19997;-67
2021/06/12 12:35:08;;;;;;;;;;;23.00;46.10;;;;;;5060702;28;19931;-67
2021/06/12 12:37:34;;;;;;;;;;;22.80;46.30;;;;;;5058847;28;20027;-66
2021/06/12 12:39:59;;;;;;;;;;;22.80;46.80;;;;;;5058466;28;19956;-67
2021/06/12 12:42:25;;;;;;;;;;;22.80;46.80;;;;;;5063426;28;20006;-69
2021/06/12 12:44:53;;;;;;;;;;;22.90;46.70;;;;;;5053907;28;19916;-68
2021/06/12 12:47:21;;;;;;;;;;;22.90;46.60;;;;;;5067094;28;20099;-67
2021/06/12 12:49:47;;;;;;;;;;;23.10;47.10;;;;;;5058215;28;19960;-67
2021/06/12 12:52:20;;;;;;;;;;;23.30;46.30;;;;;;5059530;28;20009;-67
2021/06/12 12:55:03;;;;;;;;;;;23.20;45.90;;;;;;5065858;28;19923;-68
2021/06/12 12:57:44;;;;;;;;;;;23.00;45.50;;;;;;5059115;28;20058;-65
2021/06/12 13:00:16;;;;;;;;;;;22.70;46.10;;;;;;5063370;28;19917;-66
2021/06/12 13:02:42;;;;;;;;;;;22.60;46.70;;;;;;5069900;28;20438;-67
2021/06/12 13:05:12;;;;;;;;;;;22.40;46.30;;;;;;5057379;28;19917;-67
2021/06/12 13:07:38;;;;;;;;;;;22.10;46.50;;;;;;5067991;28;20329;-67
2021/06/12 13:10:09;;;;;;;;;;;22.00;47.70;;;;;;5064140;28;19917;-67
2021/06/12 13:12:35;;;;;;;;;;;22.20;47.80;;;;;;5060183;28;19923;-68
2021/06/12 13:15:03;;;;;;;;;;;22.10;47.20;;;;;;5070657;28;19936;-67
2021/06/12 13:17:29;;;;;;;;;;;22.10;47.60;;;;;;5059292;28;20260;-67
2021/06/12 13:19:57;;;;;;;;;;;22.20;48.30;;;;;;5065525;28;20003;-68
2021/06/12 13:22:26;;;;;;;;;;;22.30;47.80;;;;;;5066178;28;19925;-67
2021/06/12 13:25:12;;;;;;;;;;;22.20;47.00;;;;;;5062368;28;19916;-65
2021/06/12 13:27:42;;;;;;;;;;;21.90;47.30;;;;;;5057910;28;19965;-67
2021/06/12 13:30:17;;;;;;;;;;;21.70;47.40;;;;;;5073203;28;19986;-67
2021/06/12 13:32:43;;;;;;;;;;;21.50;47.50;;;;;;5064354;28;19916;-66
2021/06/12 13:35:18;;;;;;;;;;;21.30;47.90;;;;;;5066839;28;19962;-69
2021/06/12 13:37:44;;;;;;;;;;;21.10;48.30;;;;;;5063656;28;20381;-67
2021/06/12 13:40:12;;;;;;;;;;;21.10;49.00;;;;;;5068434;28;20007;-66
2021/06/12 13:42:37;;;;;;;;;;;21.30;49.30;;;;;;5071131;28;19920;-67
2021/06/12 13:45:11;;;;;;;;;;;21.40;48.80;;;;;;5059754;28;20296;-68
2021/06/12 13:47:37;;;;;;;;;;;21.30;48.70;;;;;;5062614;28;19931;-65
2021/06/12 13:50:04;;;;;;;;;;;21.20;48.90;;;;;;5057265;28;19948;-65
2021/06/12 13:52:30;;;;;;;;;;;21.20;49.40;;;;;;5071621;28;19920;-67
2021/06/12 13:54:55;;;;;;;;;;;21.20;49.30;;;;;;5068137;28;19935;-67
2021/06/12 13:57:21;;;;;;;;;;;21.10;49.00;;;;;;5061588;28;19924;-67
2021/06/12 13:59:46;;;;;;;;;;;21.00;48.90;;;;;;5061555;28;19982;-68
2021/06/12 14:02:12;;;;;;;;;;;20.90;48.60;;;;;;5069018;28;19929;-67
2021/06/12 14:04:39;;;;;;;;;;;20.80;48.70;;;;;;5056145;28;19928;-67
2021/06/12 14:07:06;;;;;;;;;;;20.90;48.60;;;;;;5065426;28;19939;-67
2021/06/12 14:09:32;;;;;;;;;;;20.90;48.80;;;;;;5057968;28;19920;-68
2021/06/12 14:11:57;;;;;;;;;;;20.80;48.50;;;;;;5068990;28;19924;-67
2021/06/12 14:14:23;;;;;;;;;;;20.70;47.80;;;;;;5054688;28;20290;-67
2021/06/12 14:16:48;;;;;;;;;;;20.50;47.20;;;;;;5063602;28;19982;-68